Terminal Aerodrome Forecast
Issued by NWS Cleveland, OH

Home | Current Version | Previous Version | Text Only | Print | Product List | Glossary On
Versions: 1 2 3 4 5 6 7 8 9 10 11 12 13 14 15 16 17 18 19 20 21 22 23 24 25 26 27
000
FTUS41 KCLE 242103 AAB
TAFCLE
TAF AMD
KCLE 242103Z 2421/2524 12010KT P6SM OVC025
      TEMPO 2421/2424 4SM -SHRA OVC015
     FM250000 10012G20KT 4SM -SHRA OVC015
     FM250300 10010KT 4SM -SHRA BR OVC008
     FM250800 14008KT P6SM OVC008
     FM251400 19006KT P6SM VCSH OVC015
     FM251900 26006KT P6SM -SHRA OVC015=

USA.gov is the U.S. government's official web portal to all federal, state and local government web resources and services.